Hlavní strana
METAR-TAF:

METAR-TAF

Letiště :

Lonesome Pine Airport

Wise, Virginie, Spojené státy americké

zeměpisná šířka: 36-59N, zeměpisná délka: 082-32W, výška: 817 m

Aktuální stav počasí

Zpráva byla vytvořena před 14 minutami, v 18:15 UTC
Západní vítr 10 kt s nárazy do 20 kt
Teplota -1°C
Vlhkost vzduchu 64%
Tlak 1017 hPa
Viditelnost: 16.1 km
Oblačno až skoro zataženo ve výšce 2600 ft
Polojasno ve výšce 3200 ft

METAR: KLNP 271815Z AUTO 26010G20KT 10SM BKN026 SCT032 M01/M07 A3002 RMK AO2

Čas: 13:29 (18:29 UTC)


TAF: chybějící

Stav a předpovědi počasí z více než 4 000 letišť (zprávy METAR a TAF).

Červené a žluté tečky na mapě představují dostupné meteorologické stanice.

Když kurzor umístíte na tečku, zobrazí se název stanice.

Pak kliknutím zobrazíte stav a předpověď počasí.

Chcete-li změnit mapu, kliknutím na zelené tlačítko se znaménkem +mapu přiblížíte, kliknutím na zelené tlačítko se znaménkem – mapu oddálíte a kliknutím na zelené šipky přejdete na sousední mapy.


METAR-TAF: